Springlake, TX (79082)

5:56 AM CDT on July 07, 2015 (GMT -0500)
West Bedford SMB | | Change Station
CLOSE
Current Station
Personal Weather Station
Location: Dimmitt, TX
Elevation: 3904 ft
Nearby Weather Stations

Elev 3904 ft 34.54 °N, 102.34 °W | Updated 8 seconds ago

Overcast
Overcast
64.0 °F
Feels Like 64.0 °F
N
0.0
Wind Variable Wind from NE
Gusts 0.0 mph

Today
High -- | Low -- °F
--% Chance of Precip.
Yesterday
High -- | Low -- °F
Precip. -- in
6:43 AM 9:04 PM
Waning Gibbous, 66% visible
Pressure 30.04 in
Visibility 7.0 miles
Clouds Mostly Cloudy 500 ft
Overcast 1100 ft
Dew Point 63 °F
Humidity 97%
Rainfall 0.18 in
Snow Depth Not available.
UV 0 out of 12
Pollen 3.00 out of 12
Air Quality Not available.
Flu Activity Not available.
METAR KPVW 071035Z AUTO 03008KT 7SM -RA BKN005 OVC011 20/20 A3004 RMK AO2 LTG DSNT S P0002 T01970197

More Conditions Fewer Conditions

Pressure 30.04 in
Visibility 7.0 miles
Clouds Mostly Cloudy 500 ft
Overcast 1100 ft
Dew Point 63 °F
Humidity 97%
Rainfall 0.18 in
Snow Depth Not available.
UV 0 out of 12
Pollen 3.00 out of 12
Air Quality Not available.
Flu Activity Not available.
METAR KPVW 071035Z AUTO 03008KT 7SM -RA BKN005 OVC011 20/20 A3004 RMK AO2 LTG DSNT S P0002 T01970197

More Conditions Fewer Conditions

10-Day Weather Forecast

×

Almanac

Astronomy

Jul. 07, 2015 Rise Set
Actual Time
Civil Twilight
Nautical Twilight
Astronomical Twilight
Moon
Length of Visible Light
Length of Day
Tomorrow will be .
, % of the Moon is Illuminated

Today's Extremes

State Highs State Lows

Community

WunderPhotos

Upload Photos

1,835,760 photos uploaded!

WunderBlogs® & News

Nearby

Air Quality

  Air Quality AQ Index Pollutant
Not available.

Snow Depth

Station Depth Elevation

Earthquake Activity

City Distance Mag. Time & Date
Minimum magnitude displayed is 2.5.

Coastal Water Temperatures

Place Temperature

Stations

Nearby Weather Stations

Station Location Temp. Windchill Dew Point Humidity Wind Precip. Elev Updated Type